N753OZ KDAB-KCAK
Flight info
| Callsign | N753OZ |
|---|---|
| Flight time | 1h 48m |
| Altitude | 41000 |
| Route | KCRG FEMON Q87 VIYAP Q69 EMCET Q103 OAKLE JPU |
| Aircraft | CL30/M-SDFGRW/S |
Departure
| Time | 2026-04-17 04:41 |
|---|---|
| Airport | Daytona Beach International Airport (KDAB) |
Arrival
| Time | 2026-04-17 06:29 |
|---|---|
| Airport | Akron Canton Regional Airport (KCAK) |
| Time | Latitude | Longitude | Altitude | Speed | Heading |
|---|---|---|---|---|---|
| 2026-04-17 04:28 | 29.18644 | -81.05650 | 33 ft | 0 kts | 246° |
| 2026-04-17 04:37 | 29.18643 | -81.05651 | 33 ft | 2 kts | 246° |
| 2026-04-17 04:37 | 29.18635 | -81.05656 | 33 ft | 1 kts | 160° |
| 2026-04-17 04:37 | 29.18634 | -81.05646 | 33 ft | 1 kts | 62° |
| 2026-04-17 04:38 | 29.18650 | -81.05621 | 33 ft | 5 kts | 53° |
| 2026-04-17 04:38 | 29.18687 | -81.05591 | 33 ft | 7 kts | 3° |
| 2026-04-17 04:38 | 29.18745 | -81.05613 | 33 ft | 8 kts | 336° |
| 2026-04-17 04:38 | 29.18802 | -81.05641 | 33 ft | 9 kts | 336° |
| 2026-04-17 04:39 | 29.18873 | -81.05675 | 33 ft | 12 kts | 338° |
| 2026-04-17 04:39 | 29.18948 | -81.05710 | 33 ft | 9 kts | 338° |
| 2026-04-17 04:39 | 29.19009 | -81.05729 | 33 ft | 8 kts | 4° |
| 2026-04-17 04:39 | 29.19040 | -81.05714 | 33 ft | 0 kts | 44° |
| 2026-04-17 04:40 | 29.19043 | -81.05711 | 33 ft | 3 kts | 45° |
| 2026-04-17 04:40 | 29.19063 | -81.05638 | 33 ft | 16 kts | 113° |
| 2026-04-17 04:40 | 29.18790 | -81.05489 | 33 ft | 89 kts | 156° |
| 2026-04-17 04:41 | 29.17890 | -81.05072 | 236 ft | 175 kts | 157° |
| 2026-04-17 04:41 | 29.16693 | -81.04515 | 1407 ft | 198 kts | 155° |
| 2026-04-17 04:41 | 29.15481 | -81.03884 | 2891 ft | 206 kts | 155° |
| 2026-04-17 04:41 | 29.14162 | -81.03212 | 4378 ft | 214 kts | 155° |
| 2026-04-17 04:42 | 29.12817 | -81.02559 | 5835 ft | 218 kts | 170° |
| 2026-04-17 04:42 | 29.11371 | -81.02850 | 7190 ft | 219 kts | 214° |
| 2026-04-17 04:42 | 29.10492 | -81.04208 | 8479 ft | 219 kts | 258° |
| 2026-04-17 04:42 | 29.10682 | -81.05921 | 9714 ft | 220 kts | 301° |
| 2026-04-17 04:43 | 29.11827 | -81.07137 | 10949 ft | 224 kts | 325° |
| 2026-04-17 04:43 | 29.13122 | -81.08176 | 12137 ft | 228 kts | 324° |
| 2026-04-17 04:43 | 29.14438 | -81.09233 | 13032 ft | 244 kts | 324° |
| 2026-04-17 04:43 | 29.16011 | -81.10500 | 13107 ft | 295 kts | 324° |
| 2026-04-17 04:44 | 29.17789 | -81.11929 | 14016 ft | 312 kts | 324° |
| 2026-04-17 04:44 | 29.19607 | -81.13389 | 15353 ft | 312 kts | 324° |
| 2026-04-17 04:44 | 29.21408 | -81.14867 | 16547 ft | 315 kts | 319° |
| 2026-04-17 04:44 | 29.22640 | -81.16964 | 17615 ft | 318 kts | 290° |
| 2026-04-17 04:45 | 29.23289 | -81.19437 | 18666 ft | 322 kts | 287° |
| 2026-04-17 04:45 | 29.23924 | -81.21953 | 19672 ft | 326 kts | 287° |
| 2026-04-17 04:45 | 29.24578 | -81.24511 | 20652 ft | 330 kts | 287° |
| 2026-04-17 04:45 | 29.25232 | -81.27035 | 21609 ft | 332 kts | 287° |
| 2026-04-17 04:46 | 29.26054 | -81.29484 | 22559 ft | 333 kts | 292° |
| 2026-04-17 04:46 | 29.26965 | -81.31914 | 23418 ft | 337 kts | 292° |
| 2026-04-17 04:46 | 29.27885 | -81.34360 | 24219 ft | 340 kts | 292° |
| 2026-04-17 04:46 | 29.28821 | -81.36835 | 25038 ft | 342 kts | 292° |
| 2026-04-17 04:47 | 29.29995 | -81.39222 | 25794 ft | 348 kts | 309° |
| 2026-04-17 04:47 | 29.31985 | -81.40820 | 26495 ft | 359 kts | 334° |
| 2026-04-17 04:47 | 29.34462 | -81.41335 | 27161 ft | 371 kts | 352° |
| 2026-04-17 04:47 | 29.37017 | -81.41522 | 27851 ft | 373 kts | 351° |
| 2026-04-17 04:48 | 29.39583 | -81.41744 | 28535 ft | 375 kts | 350° |
| 2026-04-17 04:48 | 29.42192 | -81.41987 | 29166 ft | 379 kts | 350° |
| 2026-04-17 04:48 | 29.44817 | -81.42238 | 29753 ft | 382 kts | 349° |
| 2026-04-17 04:48 | 29.47477 | -81.42495 | 30336 ft | 386 kts | 349° |
| 2026-04-17 04:49 | 29.50120 | -81.42751 | 30915 ft | 388 kts | 349° |
| 2026-04-17 04:49 | 29.52831 | -81.43014 | 31479 ft | 390 kts | 349° |
| 2026-04-17 04:49 | 29.55499 | -81.43275 | 32002 ft | 393 kts | 349° |
| 2026-04-17 04:49 | 29.58232 | -81.43541 | 32518 ft | 395 kts | 349° |
| 2026-04-17 04:50 | 29.60974 | -81.43809 | 33016 ft | 398 kts | 349° |
| 2026-04-17 04:50 | 29.63741 | -81.44080 | 33493 ft | 400 kts | 349° |
| 2026-04-17 04:50 | 29.66486 | -81.44348 | 33936 ft | 402 kts | 349° |
| 2026-04-17 04:50 | 29.69271 | -81.44621 | 34367 ft | 405 kts | 349° |
| 2026-04-17 04:51 | 29.72077 | -81.44896 | 34825 ft | 406 kts | 349° |
| 2026-04-17 04:51 | 29.74878 | -81.45170 | 35309 ft | 406 kts | 349° |
| 2026-04-17 04:51 | 29.77667 | -81.45441 | 35636 ft | 411 kts | 349° |
| 2026-04-17 04:51 | 29.80518 | -81.45723 | 35924 ft | 415 kts | 349° |
| 2026-04-17 04:52 | 29.83404 | -81.46006 | 36436 ft | 413 kts | 349° |
| 2026-04-17 04:52 | 29.86222 | -81.46281 | 37059 ft | 409 kts | 348° |
| 2026-04-17 04:52 | 29.89042 | -81.46558 | 37631 ft | 406 kts | 348° |
| 2026-04-17 04:52 | 29.91824 | -81.46832 | 38161 ft | 404 kts | 348° |
| 2026-04-17 04:53 | 29.94575 | -81.47102 | 38673 ft | 402 kts | 348° |
| 2026-04-17 04:53 | 29.97367 | -81.47378 | 39176 ft | 400 kts | 348° |
| 2026-04-17 04:53 | 30.00122 | -81.47649 | 39657 ft | 399 kts | 348° |
| 2026-04-17 04:55 | 30.19579 | -81.49574 | 41105 ft | 412 kts | 348° |
| 2026-04-17 04:55 | 30.25299 | -81.50140 | 41105 ft | 414 kts | 348° |
| 2026-04-17 04:56 | 30.30991 | -81.50703 | 41104 ft | 415 kts | 348° |
| 2026-04-17 04:56 | 30.36849 | -81.50131 | 41105 ft | 436 kts | 7° |
| 2026-04-17 04:57 | 30.39703 | -81.48940 | 41105 ft | 447 kts | 17° |
| 2026-04-17 04:57 | 30.42434 | -81.47177 | 41108 ft | 455 kts | 23° |
| 2026-04-17 04:57 | 30.47974 | -81.43785 | 41106 ft | 452 kts | 19° |
| 2026-04-17 04:58 | 30.53720 | -81.41205 | 41103 ft | 435 kts | 4° |
| 2026-04-17 04:58 | 30.59612 | -81.40579 | 41113 ft | 425 kts | 354° |
| 2026-04-17 04:59 | 30.65474 | -81.40568 | 41112 ft | 423 kts | 351° |
| 2026-04-17 04:59 | 30.71317 | -81.40756 | 41112 ft | 423 kts | 351° |
| 2026-04-17 05:00 | 30.77178 | -81.41019 | 41109 ft | 423 kts | 350° |
| 2026-04-17 05:00 | 30.83053 | -81.41316 | 41112 ft | 424 kts | 350° |
| 2026-04-17 05:01 | 30.88932 | -81.41623 | 41077 ft | 426 kts | 350° |
| 2026-04-17 05:01 | 30.94816 | -81.41934 | 41074 ft | 427 kts | 350° |
| 2026-04-17 05:02 | 31.00742 | -81.42249 | 41074 ft | 427 kts | 350° |
| 2026-04-17 05:02 | 31.06654 | -81.42564 | 41073 ft | 428 kts | 350° |
| 2026-04-17 05:03 | 31.12573 | -81.42881 | 41078 ft | 428 kts | 350° |
| 2026-04-17 05:03 | 31.18499 | -81.43198 | 41078 ft | 429 kts | 350° |
| 2026-04-17 05:04 | 31.24433 | -81.43516 | 41077 ft | 430 kts | 350° |
| 2026-04-17 05:04 | 31.30440 | -81.43613 | 41096 ft | 432 kts | 352° |
| 2026-04-17 05:05 | 31.36431 | -81.43687 | 41094 ft | 433 kts | 352° |
| 2026-04-17 05:05 | 31.42407 | -81.43759 | 41094 ft | 434 kts | 352° |
| 2026-04-17 05:06 | 31.48465 | -81.43084 | 41095 ft | 451 kts | 7° |
| 2026-04-17 05:06 | 31.54453 | -81.40881 | 41095 ft | 455 kts | 10° |
| 2026-04-17 05:07 | 31.60479 | -81.38488 | 41059 ft | 457 kts | 11° |
| 2026-04-17 05:07 | 31.66463 | -81.36056 | 41058 ft | 458 kts | 11° |
| 2026-04-17 05:08 | 31.72439 | -81.33604 | 41058 ft | 459 kts | 11° |
| 2026-04-17 05:08 | 31.78450 | -81.31130 | 41057 ft | 459 kts | 11° |
| 2026-04-17 05:09 | 31.84460 | -81.28651 | 41059 ft | 460 kts | 11° |
| 2026-04-17 05:09 | 31.90466 | -81.26169 | 41041 ft | 461 kts | 11° |
| 2026-04-17 05:10 | 31.96576 | -81.24128 | 41039 ft | 449 kts | 360° |
| 2026-04-17 05:10 | 32.02705 | -81.23557 | 41041 ft | 444 kts | 355° |
| 2026-04-17 05:11 | 32.08853 | -81.23168 | 41066 ft | 443 kts | 355° |
| 2026-04-17 05:11 | 32.14981 | -81.22834 | 41071 ft | 443 kts | 355° |
| 2026-04-17 05:12 | 32.21124 | -81.22517 | 41071 ft | 444 kts | 355° |
| 2026-04-17 05:12 | 32.27277 | -81.22205 | 41065 ft | 445 kts | 354° |
| 2026-04-17 05:13 | 32.33444 | -81.21898 | 41070 ft | 445 kts | 354° |
| 2026-04-17 05:13 | 32.39600 | -81.21590 | 41070 ft | 446 kts | 354° |
| 2026-04-17 05:14 | 32.45782 | -81.21281 | 41070 ft | 447 kts | 354° |
| 2026-04-17 05:14 | 32.52009 | -81.20242 | 41071 ft | 456 kts | 2° |
| 2026-04-17 05:15 | 32.58242 | -81.18861 | 41070 ft | 457 kts | 2° |
| 2026-04-17 05:15 | 32.64460 | -81.17448 | 41070 ft | 458 kts | 3° |
| 2026-04-17 05:16 | 32.70705 | -81.16015 | 41044 ft | 459 kts | 3° |
| 2026-04-17 05:16 | 32.76953 | -81.14574 | 41042 ft | 460 kts | 3° |
| 2026-04-17 05:17 | 32.83179 | -81.13135 | 41043 ft | 460 kts | 3° |
| 2026-04-17 05:17 | 32.89461 | -81.11682 | 41043 ft | 461 kts | 3° |
| 2026-04-17 05:18 | 32.95757 | -81.10223 | 41043 ft | 461 kts | 3° |
| 2026-04-17 05:18 | 33.02019 | -81.08769 | 41043 ft | 462 kts | 3° |
| 2026-04-17 05:19 | 33.08307 | -81.07307 | 41043 ft | 462 kts | 3° |
| 2026-04-17 05:19 | 33.14582 | -81.05846 | 41045 ft | 463 kts | 3° |
| 2026-04-17 05:20 | 33.20889 | -81.04376 | 41049 ft | 463 kts | 3° |
| 2026-04-17 05:20 | 33.27191 | -81.02904 | 41038 ft | 464 kts | 3° |
| 2026-04-17 05:21 | 33.33499 | -81.01429 | 41046 ft | 465 kts | 3° |
| 2026-04-17 05:21 | 33.39803 | -80.99953 | 41046 ft | 466 kts | 3° |
| 2026-04-17 05:22 | 33.46172 | -80.98460 | 41046 ft | 467 kts | 3° |
| 2026-04-17 05:22 | 33.52488 | -80.96976 | 41046 ft | 467 kts | 3° |
| 2026-04-17 05:23 | 33.58873 | -80.95473 | 41029 ft | 469 kts | 3° |
| 2026-04-17 05:23 | 33.65219 | -80.93978 | 41046 ft | 469 kts | 3° |
| 2026-04-17 05:24 | 33.71596 | -80.92474 | 41029 ft | 470 kts | 3° |
| 2026-04-17 05:24 | 33.77989 | -80.90963 | 41010 ft | 471 kts | 3° |
| 2026-04-17 05:25 | 33.84392 | -80.89448 | 41010 ft | 470 kts | 3° |
| 2026-04-17 05:25 | 33.90823 | -80.88248 | 41011 ft | 467 kts | 0° |
| 2026-04-17 05:26 | 33.97187 | -80.87101 | 41023 ft | 467 kts | 0° |
| 2026-04-17 05:26 | 34.03580 | -80.85949 | 41038 ft | 466 kts | 0° |
| 2026-04-17 05:27 | 34.09984 | -80.84795 | 41037 ft | 466 kts | 0° |
| 2026-04-17 05:27 | 34.16342 | -80.83450 | 41012 ft | 474 kts | 7° |
| 2026-04-17 05:28 | 34.22683 | -80.81223 | 41039 ft | 475 kts | 8° |
| 2026-04-17 05:28 | 34.28987 | -80.78925 | 41038 ft | 476 kts | 8° |
| 2026-04-17 05:29 | 34.35314 | -80.76597 | 41041 ft | 476 kts | 8° |
| 2026-04-17 05:29 | 34.41612 | -80.74268 | 41040 ft | 476 kts | 8° |
| 2026-04-17 05:30 | 34.47910 | -80.71931 | 41041 ft | 477 kts | 8° |
| 2026-04-17 05:30 | 34.54236 | -80.69579 | 41041 ft | 477 kts | 8° |
| 2026-04-17 05:31 | 34.60591 | -80.67213 | 41032 ft | 478 kts | 8° |
| 2026-04-17 05:31 | 34.63754 | -80.66349 | 41028 ft | 467 kts | 359° |
| 2026-04-17 05:31 | 34.66949 | -80.66071 | 41035 ft | 459 kts | 353° |
| 2026-04-17 05:32 | 34.73280 | -80.66008 | 41032 ft | 457 kts | 351° |
| 2026-04-17 05:32 | 34.79603 | -80.66076 | 41033 ft | 457 kts | 350° |
| 2026-04-17 05:33 | 34.85928 | -80.66194 | 41032 ft | 457 kts | 349° |
| 2026-04-17 05:33 | 34.92277 | -80.66328 | 41015 ft | 458 kts | 349° |
| 2026-04-17 05:34 | 34.98651 | -80.66468 | 41015 ft | 459 kts | 349° |
| 2026-04-17 05:34 | 35.04987 | -80.66609 | 41015 ft | 459 kts | 349° |
| 2026-04-17 05:35 | 35.11343 | -80.66751 | 41014 ft | 460 kts | 349° |
| 2026-04-17 05:35 | 35.17720 | -80.66894 | 41027 ft | 460 kts | 349° |
| 2026-04-17 05:36 | 35.24098 | -80.67037 | 41032 ft | 460 kts | 349° |
| 2026-04-17 05:36 | 35.30475 | -80.67178 | 41032 ft | 460 kts | 349° |
| 2026-04-17 05:37 | 35.36820 | -80.67323 | 41032 ft | 461 kts | 349° |
| 2026-04-17 05:37 | 35.43237 | -80.67468 | 41032 ft | 461 kts | 349° |
| 2026-04-17 05:38 | 35.49617 | -80.67613 | 41032 ft | 461 kts | 349° |
| 2026-04-17 05:38 | 35.56003 | -80.67757 | 41031 ft | 462 kts | 349° |
| 2026-04-17 05:39 | 35.62386 | -80.67902 | 41006 ft | 463 kts | 349° |
| 2026-04-17 05:39 | 35.68793 | -80.68048 | 41005 ft | 463 kts | 349° |
| 2026-04-17 05:40 | 35.75232 | -80.68195 | 41005 ft | 463 kts | 349° |
| 2026-04-17 05:40 | 35.81610 | -80.68336 | 41015 ft | 463 kts | 348° |
| 2026-04-17 05:41 | 35.88073 | -80.68486 | 41016 ft | 464 kts | 348° |
| 2026-04-17 05:41 | 35.94468 | -80.68633 | 41016 ft | 464 kts | 348° |
| 2026-04-17 05:42 | 36.00911 | -80.68781 | 41016 ft | 465 kts | 348° |
| 2026-04-17 05:42 | 36.07331 | -80.68928 | 41030 ft | 465 kts | 348° |
| 2026-04-17 05:43 | 36.13789 | -80.69076 | 41040 ft | 465 kts | 348° |
| 2026-04-17 05:43 | 36.20213 | -80.69225 | 41014 ft | 466 kts | 348° |
| 2026-04-17 05:44 | 36.26650 | -80.69373 | 41012 ft | 466 kts | 348° |
| 2026-04-17 05:44 | 36.33107 | -80.69521 | 41013 ft | 466 kts | 348° |
| 2026-04-17 05:45 | 36.39594 | -80.69672 | 41014 ft | 466 kts | 348° |
| 2026-04-17 05:45 | 36.46022 | -80.69821 | 41014 ft | 466 kts | 348° |
| 2026-04-17 05:46 | 36.52508 | -80.69971 | 41014 ft | 466 kts | 348° |
| 2026-04-17 05:46 | 36.58965 | -80.70122 | 41014 ft | 467 kts | 348° |
| 2026-04-17 05:47 | 36.65409 | -80.70272 | 41015 ft | 467 kts | 348° |
| 2026-04-17 05:47 | 36.71849 | -80.70422 | 41059 ft | 466 kts | 348° |
| 2026-04-17 05:48 | 36.78313 | -80.70575 | 41060 ft | 466 kts | 348° |
| 2026-04-17 05:48 | 36.84777 | -80.70725 | 41061 ft | 467 kts | 348° |
| 2026-04-17 05:49 | 36.91239 | -80.70876 | 41061 ft | 467 kts | 348° |
| 2026-04-17 05:49 | 36.97728 | -80.71028 | 41044 ft | 468 kts | 349° |
| 2026-04-17 05:50 | 37.04237 | -80.71182 | 41034 ft | 469 kts | 349° |
| 2026-04-17 05:50 | 37.10793 | -80.70356 | 41038 ft | 489 kts | 3° |
| 2026-04-17 05:51 | 37.17398 | -80.68321 | 41031 ft | 491 kts | 5° |
| 2026-04-17 05:51 | 37.23965 | -80.66170 | 41032 ft | 492 kts | 5° |
| 2026-04-17 05:52 | 37.30548 | -80.63978 | 41047 ft | 492 kts | 6° |
| 2026-04-17 05:52 | 37.37156 | -80.61755 | 41051 ft | 492 kts | 6° |
| 2026-04-17 05:53 | 37.43735 | -80.59536 | 41051 ft | 493 kts | 6° |
| 2026-04-17 05:53 | 37.50363 | -80.57296 | 41053 ft | 493 kts | 6° |
| 2026-04-17 05:54 | 37.56943 | -80.55067 | 41044 ft | 494 kts | 6° |
| 2026-04-17 05:54 | 37.63571 | -80.52819 | 41017 ft | 495 kts | 6° |
| 2026-04-17 05:55 | 37.70187 | -80.50570 | 41018 ft | 496 kts | 6° |
| 2026-04-17 05:55 | 37.76816 | -80.48311 | 41020 ft | 496 kts | 6° |
| 2026-04-17 05:56 | 37.83485 | -80.46036 | 41019 ft | 497 kts | 6° |
| 2026-04-17 05:56 | 37.90132 | -80.43765 | 41020 ft | 498 kts | 6° |
| 2026-04-17 05:57 | 37.96750 | -80.41499 | 41021 ft | 498 kts | 6° |
| 2026-04-17 05:57 | 38.03426 | -80.39275 | 41018 ft | 494 kts | 2° |
| 2026-04-17 05:58 | 38.06788 | -80.38751 | 41019 ft | 482 kts | 353° |
| 2026-04-17 05:58 | 38.10107 | -80.38763 | 41021 ft | 475 kts | 347° |
| 2026-04-17 05:58 | 38.13303 | -80.39288 | 41014 ft | 462 kts | 338° |
| 2026-04-17 05:59 | 38.19110 | -80.42076 | 41019 ft | 441 kts | 323° |
| 2026-04-17 05:59 | 38.24461 | -80.45763 | 41016 ft | 438 kts | 321° |
| 2026-04-17 06:00 | 38.29747 | -80.49621 | 41024 ft | 438 kts | 320° |
| 2026-04-17 06:00 | 38.34973 | -80.53524 | 41024 ft | 439 kts | 319° |
| 2026-04-17 06:01 | 38.40230 | -80.57484 | 41024 ft | 439 kts | 319° |
| 2026-04-17 06:01 | 38.42844 | -80.59460 | 40867 ft | 442 kts | 319° |
| 2026-04-17 06:01 | 38.45495 | -80.61468 | 40425 ft | 446 kts | 319° |
| 2026-04-17 06:01 | 38.48133 | -80.63468 | 40008 ft | 449 kts | 319° |
| 2026-04-17 06:02 | 38.50829 | -80.65514 | 39591 ft | 451 kts | 319° |
| 2026-04-17 06:02 | 38.53529 | -80.67564 | 39174 ft | 452 kts | 319° |
| 2026-04-17 06:02 | 38.56189 | -80.69584 | 38753 ft | 450 kts | 319° |
| 2026-04-17 06:02 | 38.58889 | -80.71639 | 38326 ft | 447 kts | 319° |
| 2026-04-17 06:03 | 38.61507 | -80.73634 | 37909 ft | 444 kts | 319° |
| 2026-04-17 06:03 | 38.64166 | -80.75662 | 37479 ft | 441 kts | 319° |
| 2026-04-17 06:03 | 38.66853 | -80.77711 | 37042 ft | 440 kts | 319° |
| 2026-04-17 06:03 | 38.69455 | -80.79698 | 36661 ft | 437 kts | 319° |
| 2026-04-17 06:04 | 38.72081 | -80.81708 | 36279 ft | 438 kts | 319° |
| 2026-04-17 06:04 | 38.74674 | -80.83694 | 35895 ft | 440 kts | 319° |
| 2026-04-17 06:04 | 38.77314 | -80.85718 | 35499 ft | 441 kts | 319° |
| 2026-04-17 06:04 | 38.79950 | -80.87734 | 35099 ft | 442 kts | 319° |
| 2026-04-17 06:05 | 38.82575 | -80.89745 | 34697 ft | 443 kts | 319° |
| 2026-04-17 06:05 | 38.85252 | -80.91800 | 34283 ft | 444 kts | 319° |
| 2026-04-17 06:05 | 38.87919 | -80.93851 | 33866 ft | 444 kts | 318° |
| 2026-04-17 06:05 | 38.90530 | -80.95860 | 33453 ft | 444 kts | 318° |
| 2026-04-17 06:06 | 38.93205 | -80.97920 | 33026 ft | 445 kts | 318° |
| 2026-04-17 06:06 | 38.95845 | -80.99954 | 32602 ft | 445 kts | 318° |
| 2026-04-17 06:06 | 38.98488 | -81.01992 | 32173 ft | 445 kts | 318° |
| 2026-04-17 06:06 | 39.01123 | -81.04026 | 31741 ft | 445 kts | 318° |
| 2026-04-17 06:07 | 39.03774 | -81.06074 | 31302 ft | 444 kts | 318° |
| 2026-04-17 06:07 | 39.06388 | -81.08096 | 30860 ft | 444 kts | 318° |
| 2026-04-17 06:07 | 39.09043 | -81.10150 | 30407 ft | 444 kts | 318° |
| 2026-04-17 06:07 | 39.11687 | -81.12198 | 29938 ft | 443 kts | 318° |
| 2026-04-17 06:08 | 39.14335 | -81.14253 | 29459 ft | 443 kts | 318° |
| 2026-04-17 06:08 | 39.16971 | -81.16300 | 28983 ft | 441 kts | 318° |
| 2026-04-17 06:08 | 39.19606 | -81.18347 | 28507 ft | 440 kts | 319° |
| 2026-04-17 06:08 | 39.22268 | -81.20418 | 28025 ft | 438 kts | 319° |
| 2026-04-17 06:09 | 39.24918 | -81.22479 | 27546 ft | 437 kts | 319° |
| 2026-04-17 06:09 | 39.27492 | -81.24485 | 27083 ft | 434 kts | 319° |
| 2026-04-17 06:09 | 39.30114 | -81.26530 | 26606 ft | 431 kts | 320° |
| 2026-04-17 06:09 | 39.32736 | -81.28575 | 26132 ft | 429 kts | 320° |
| 2026-04-17 06:10 | 39.35330 | -81.30598 | 25662 ft | 426 kts | 320° |
| 2026-04-17 06:10 | 39.37915 | -81.32619 | 25194 ft | 423 kts | 320° |
| 2026-04-17 06:10 | 39.40487 | -81.34630 | 24727 ft | 420 kts | 321° |
| 2026-04-17 06:10 | 39.43051 | -81.36505 | 24237 ft | 427 kts | 329° |
| 2026-04-17 06:11 | 39.46090 | -81.37318 | 23735 ft | 442 kts | 349° |
| 2026-04-17 06:11 | 39.49242 | -81.37563 | 23233 ft | 441 kts | 351° |
| 2026-04-17 06:11 | 39.52326 | -81.37750 | 22735 ft | 439 kts | 351° |
| 2026-04-17 06:11 | 39.55466 | -81.37918 | 22229 ft | 436 kts | 351° |
| 2026-04-17 06:12 | 39.58527 | -81.38069 | 21735 ft | 433 kts | 352° |
| 2026-04-17 06:12 | 39.61609 | -81.38214 | 21239 ft | 430 kts | 352° |
| 2026-04-17 06:12 | 39.64655 | -81.38353 | 20750 ft | 426 kts | 352° |
| 2026-04-17 06:12 | 39.67696 | -81.38489 | 20260 ft | 422 kts | 352° |
| 2026-04-17 06:13 | 39.70688 | -81.38622 | 19780 ft | 419 kts | 352° |
| 2026-04-17 06:13 | 39.73636 | -81.38751 | 19308 ft | 415 kts | 352° |
| 2026-04-17 06:13 | 39.76614 | -81.38882 | 18830 ft | 411 kts | 352° |
| 2026-04-17 06:13 | 39.79472 | -81.39005 | 18373 ft | 407 kts | 351° |
| 2026-04-17 06:14 | 39.82386 | -81.39134 | 17912 ft | 403 kts | 352° |
| 2026-04-17 06:14 | 39.85231 | -81.39259 | 17463 ft | 399 kts | 352° |
| 2026-04-17 06:14 | 39.88029 | -81.39383 | 17020 ft | 395 kts | 352° |
| 2026-04-17 06:14 | 39.90857 | -81.39507 | 16573 ft | 390 kts | 352° |
| 2026-04-17 06:15 | 39.93628 | -81.39629 | 16135 ft | 384 kts | 352° |
| 2026-04-17 06:15 | 39.96313 | -81.39747 | 15710 ft | 379 kts | 352° |
| 2026-04-17 06:15 | 39.98968 | -81.39864 | 15289 ft | 374 kts | 352° |
| 2026-04-17 06:15 | 40.01605 | -81.39980 | 14872 ft | 368 kts | 352° |
| 2026-04-17 06:16 | 40.04213 | -81.40094 | 14458 ft | 363 kts | 352° |
| 2026-04-17 06:16 | 40.06736 | -81.40205 | 14058 ft | 357 kts | 352° |
| 2026-04-17 06:16 | 40.09192 | -81.40314 | 13669 ft | 351 kts | 352° |
| 2026-04-17 06:16 | 40.11658 | -81.40422 | 13274 ft | 345 kts | 352° |
| 2026-04-17 06:17 | 40.14051 | -81.40527 | 12889 ft | 339 kts | 352° |
| 2026-04-17 06:17 | 40.16428 | -81.40631 | 12508 ft | 334 kts | 352° |
| 2026-04-17 06:17 | 40.18773 | -81.40734 | 12132 ft | 328 kts | 352° |
| 2026-04-17 06:17 | 40.21037 | -81.40834 | 11770 ft | 322 kts | 352° |
| 2026-04-17 06:18 | 40.23283 | -81.40934 | 11412 ft | 316 kts | 352° |
| 2026-04-17 06:18 | 40.25456 | -81.41030 | 11065 ft | 310 kts | 352° |
| 2026-04-17 06:18 | 40.27645 | -81.41128 | 10714 ft | 304 kts | 352° |
| 2026-04-17 06:18 | 40.29824 | -81.41225 | 10366 ft | 299 kts | 352° |
| 2026-04-17 06:19 | 40.31949 | -81.41319 | 10027 ft | 293 kts | 352° |
| 2026-04-17 06:19 | 40.34001 | -81.41410 | 9700 ft | 289 kts | 352° |
| 2026-04-17 06:19 | 40.35993 | -81.41499 | 9386 ft | 286 kts | 352° |
| 2026-04-17 06:19 | 40.37962 | -81.41587 | 9075 ft | 283 kts | 352° |
| 2026-04-17 06:20 | 40.39911 | -81.41673 | 8767 ft | 279 kts | 351° |
| 2026-04-17 06:20 | 40.41837 | -81.41760 | 8463 ft | 276 kts | 351° |
| 2026-04-17 06:20 | 40.43728 | -81.41844 | 8165 ft | 272 kts | 351° |
| 2026-04-17 06:20 | 40.45611 | -81.41930 | 7868 ft | 267 kts | 351° |
| 2026-04-17 06:21 | 40.47456 | -81.42013 | 7576 ft | 263 kts | 351° |
| 2026-04-17 06:21 | 40.49242 | -81.42093 | 7294 ft | 258 kts | 351° |
| 2026-04-17 06:21 | 40.51040 | -81.42173 | 7011 ft | 253 kts | 351° |
| 2026-04-17 06:21 | 40.52758 | -81.42250 | 6740 ft | 248 kts | 351° |
| 2026-04-17 06:22 | 40.54479 | -81.42327 | 6468 ft | 243 kts | 351° |
| 2026-04-17 06:22 | 40.56150 | -81.42401 | 6205 ft | 237 kts | 351° |
| 2026-04-17 06:22 | 40.57793 | -81.42475 | 5946 ft | 231 kts | 350° |
| 2026-04-17 06:22 | 40.59380 | -81.42546 | 5696 ft | 226 kts | 350° |
| 2026-04-17 06:23 | 40.60921 | -81.42615 | 5455 ft | 221 kts | 350° |
| 2026-04-17 06:23 | 40.62453 | -81.42683 | 5215 ft | 216 kts | 350° |
| 2026-04-17 06:23 | 40.63937 | -81.42750 | 4984 ft | 211 kts | 350° |
| 2026-04-17 06:23 | 40.65382 | -81.42815 | 4759 ft | 207 kts | 350° |
| 2026-04-17 06:24 | 40.66803 | -81.42879 | 4538 ft | 203 kts | 349° |
| 2026-04-17 06:24 | 40.68210 | -81.42943 | 4320 ft | 199 kts | 349° |
| 2026-04-17 06:24 | 40.69577 | -81.43005 | 4109 ft | 195 kts | 349° |
| 2026-04-17 06:24 | 40.70918 | -81.43065 | 3903 ft | 192 kts | 349° |
| 2026-04-17 06:25 | 40.72235 | -81.43125 | 3702 ft | 188 kts | 350° |
| 2026-04-17 06:25 | 40.73538 | -81.43186 | 3502 ft | 185 kts | 348° |
| 2026-04-17 06:25 | 40.74668 | -81.43734 | 3308 ft | 170 kts | 324° |
| 2026-04-17 06:25 | 40.75686 | -81.44500 | 3113 ft | 168 kts | 323° |
| 2026-04-17 06:26 | 40.76816 | -81.44890 | 2900 ft | 178 kts | 356° |
| 2026-04-17 06:26 | 40.78056 | -81.44801 | 2699 ft | 176 kts | 355° |
| 2026-04-17 06:26 | 40.79271 | -81.44744 | 2498 ft | 175 kts | 356° |
| 2026-04-17 06:26 | 40.80475 | -81.44684 | 2396 ft | 168 kts | 356° |
| 2026-04-17 06:27 | 40.81616 | -81.44623 | 2389 ft | 161 kts | 355° |
| 2026-04-17 06:27 | 40.82713 | -81.44565 | 2395 ft | 158 kts | 355° |
| 2026-04-17 06:27 | 40.83811 | -81.44507 | 2406 ft | 155 kts | 355° |
| 2026-04-17 06:27 | 40.84858 | -81.44449 | 2391 ft | 149 kts | 355° |
| 2026-04-17 06:28 | 40.85840 | -81.44393 | 2175 ft | 133 kts | 355° |
| 2026-04-17 06:28 | 40.86740 | -81.44347 | 2007 ft | 129 kts | 356° |
| 2026-04-17 06:28 | 40.87632 | -81.44301 | 1833 ft | 125 kts | 356° |
| 2026-04-17 06:28 | 40.88486 | -81.44255 | 1674 ft | 123 kts | 357° |
| 2026-04-17 06:29 | 40.89355 | -81.44209 | 1512 ft | 128 kts | 359° |
| 2026-04-17 06:29 | 40.90267 | -81.44151 | 1338 ft | 129 kts | 359° |
| 2026-04-17 06:29 | 40.91089 | -81.44116 | 1209 ft | 107 kts | 2° |
| 2026-04-17 06:29 | 40.91594 | -81.44083 | 1209 ft | 22 kts | 10° |
| 2026-04-17 06:30 | 40.91688 | -81.44024 | 1211 ft | 17 kts | 40° |
| 2026-04-17 06:30 | 40.91792 | -81.43879 | 1213 ft | 25 kts | 47° |
| 2026-04-17 06:30 | 40.91919 | -81.43696 | 1214 ft | 26 kts | 48° |
| 2026-04-17 06:30 | 40.91986 | -81.43502 | 1211 ft | 23 kts | 142° |
| 2026-04-17 06:31 | 40.91852 | -81.43550 | 1212 ft | 20 kts | 214° |
| 2026-04-17 06:31 | 40.91750 | -81.43665 | 1212 ft | 18 kts | 228° |
| 2026-04-17 06:31 | 40.91690 | -81.43647 | 1211 ft | 9 kts | 106° |
| 2026-04-17 06:31 | 40.91715 | -81.43571 | 1210 ft | 9 kts | 51° |
| 2026-04-17 06:32 | 40.91741 | -81.43534 | 1209 ft | 0 kts | 15° |